createdAt,value
2022-11-14T00:00:18.546Z,494.00
2022-11-14T00:00:48.549Z,494.00
2022-11-14T00:01:18.577Z,493.00
2022-11-14T00:01:48.585Z,493.00
2022-11-14T00:02:18.665Z,495.00
2022-11-14T00:02:48.698Z,493.00
2022-11-14T00:03:18.677Z,497.00
2022-11-14T00:03:48.699Z,496.00
2022-11-14T00:04:18.711Z,496.00
2022-11-14T00:04:48.720Z,496.00
2022-11-14T00:05:18.725Z,496.00
2022-11-14T00:05:48.735Z,495.00
2022-11-14T00:06:18.741Z,494.00
2022-11-14T00:06:48.773Z,493.00
2022-11-14T00:07:18.834Z,491.00
2022-11-14T00:07:48.827Z,491.00
2022-11-14T00:08:18.832Z,489.00
2022-11-14T00:08:48.852Z,490.00
2022-11-14T00:09:18.851Z,489.00
2022-11-14T00:09:48.853Z,490.00
2022-11-14T00:10:18.938Z,490.00
2022-11-14T00:10:49.027Z,490.00
2022-11-14T00:11:19.115Z,494.00
2022-11-14T00:11:49.207Z,494.00
2022-11-14T00:12:19.275Z,494.00
2022-11-14T00:12:49.488Z,494.00
2022-11-14T00:13:19.418Z,491.00
2022-11-14T00:13:49.506Z,488.00
2022-11-14T00:14:19.580Z,488.00
2022-11-14T00:14:49.665Z,487.00
2022-11-14T00:15:19.751Z,487.00
2022-11-14T00:15:49.839Z,488.00
2022-11-14T00:16:19.932Z,488.00
2022-11-14T00:16:49.999Z,488.00
2022-11-14T00:17:20.091Z,488.00
2022-11-14T00:17:50.180Z,489.00
2022-11-14T00:18:20.261Z,489.00
2022-11-14T00:18:50.342Z,489.00
2022-11-14T00:19:20.423Z,490.00
2022-11-14T00:19:50.517Z,490.00
2022-11-14T00:20:20.513Z,491.00
2022-11-14T00:20:50.526Z,492.00
2022-11-14T00:21:20.525Z,491.00
2022-11-14T00:21:50.532Z,492.00
2022-11-14T00:22:20.537Z,492.00
2022-11-14T00:22:50.544Z,493.00
2022-11-14T00:23:20.554Z,493.00
2022-11-14T00:23:50.569Z,493.00
2022-11-14T00:24:20.582Z,495.00
2022-11-14T00:24:50.586Z,495.00
2022-11-14T00:25:20.596Z,494.00
2022-11-14T00:25:50.600Z,495.00
2022-11-14T00:26:20.616Z,493.00
2022-11-14T00:26:50.613Z,493.00
2022-11-14T00:27:20.621Z,493.00
2022-11-14T00:27:50.629Z,492.00
2022-11-14T00:28:20.742Z,492.00
2022-11-14T00:28:50.710Z,491.00
2022-11-14T00:29:20.719Z,491.00
2022-11-14T00:29:50.721Z,490.00
2022-11-14T00:30:20.726Z,494.00
2022-11-14T00:30:50.732Z,495.00
2022-11-14T00:31:20.753Z,493.00
2022-11-14T00:31:50.757Z,491.00
2022-11-14T00:32:20.752Z,491.00
2022-11-14T00:32:50.759Z,490.00
2022-11-14T00:33:21.002Z,491.00
2022-11-14T00:33:50.775Z,491.00
2022-11-14T00:34:20.772Z,493.00
2022-11-14T00:34:50.784Z,493.00
2022-11-14T00:35:20.787Z,490.00
2022-11-14T00:35:50.820Z,489.00
2022-11-14T00:36:20.845Z,492.00
2022-11-14T00:36:50.838Z,494.00
2022-11-14T00:37:20.842Z,494.00
2022-11-14T00:37:50.957Z,495.00
2022-11-14T00:38:20.968Z,492.00
2022-11-14T00:38:50.972Z,492.00
2022-11-14T00:39:20.964Z,491.00
2022-11-14T00:39:50.962Z,489.00
2022-11-14T00:40:20.973Z,490.00
2022-11-14T00:40:51.024Z,489.00
2022-11-14T00:41:21.026Z,490.00
2022-11-14T00:41:51.035Z,491.00
2022-11-14T00:42:21.031Z,491.00
2022-11-14T00:42:51.040Z,488.00
2022-11-14T00:43:21.040Z,489.00
2022-11-14T00:43:51.161Z,488.00
2022-11-14T00:44:21.127Z,489.00
2022-11-14T00:44:51.167Z,489.00
2022-11-14T00:45:21.179Z,489.00
2022-11-14T00:45:51.193Z,489.00
2022-11-14T00:46:21.189Z,490.00
2022-11-14T00:46:51.194Z,489.00
2022-11-14T00:47:21.194Z,491.00
2022-11-14T00:47:51.206Z,490.00
2022-11-14T00:48:21.224Z,492.00
2022-11-14T00:48:51.233Z,491.00
2022-11-14T00:49:21.238Z,494.00
2022-11-14T00:49:51.246Z,496.00
2022-11-14T00:50:21.250Z,497.00
2022-11-14T00:50:51.271Z,498.00
2022-11-14T00:51:21.273Z,499.00
2022-11-14T00:51:51.284Z,498.00
2022-11-14T00:52:21.295Z,497.00
2022-11-14T00:52:51.304Z,495.00
2022-11-14T00:53:21.310Z,496.00
2022-11-14T00:53:51.313Z,495.00
2022-11-14T00:54:21.311Z,494.00
2022-11-14T00:54:51.322Z,493.00
2022-11-14T00:55:21.328Z,494.00
2022-11-14T00:55:51.337Z,493.00
2022-11-14T00:56:21.351Z,492.00
2022-11-14T00:56:51.346Z,491.00
2022-11-14T00:57:21.345Z,493.00
2022-11-14T00:57:51.355Z,492.00
2022-11-14T00:58:21.360Z,490.00
2022-11-14T00:58:51.371Z,490.00
2022-11-14T00:59:21.490Z,489.00
2022-11-14T00:59:51.461Z,488.00
2022-11-14T01:00:21.471Z,488.00
2022-11-14T01:00:51.555Z,489.00
2022-11-14T01:01:21.644Z,489.00
2022-11-14T01:01:55.347Z,488.00
2022-11-14T01:02:21.759Z,489.00
2022-11-14T01:02:51.769Z,488.00
2022-11-14T01:03:21.787Z,488.00
2022-11-14T01:03:51.789Z,487.00
2022-11-14T01:04:21.791Z,488.00
2022-11-14T01:04:51.800Z,487.00
2022-11-14T01:05:21.800Z,488.00
2022-11-14T01:05:51.812Z,487.00
2022-11-14T01:06:21.818Z,485.00
2022-11-14T01:06:51.830Z,485.00
2022-11-14T01:07:21.854Z,484.00
2022-11-14T01:07:51.863Z,486.00
2022-11-14T01:08:21.874Z,488.00
2022-11-14T01:08:51.978Z,484.00
2022-11-14T01:09:22.087Z,482.00
2022-11-14T01:09:51.974Z,486.00
2022-11-14T01:10:22.059Z,485.00
2022-11-14T01:10:52.153Z,486.00
2022-11-14T01:11:22.231Z,486.00
2022-11-14T01:11:52.315Z,485.00
2022-11-14T01:12:22.396Z,488.00
2022-11-14T01:12:52.490Z,488.00
2022-11-14T01:13:22.564Z,488.00
2022-11-14T01:13:52.639Z,486.00
2022-11-14T01:14:22.740Z,483.00
2022-11-14T01:14:52.944Z,483.00
2022-11-14T01:15:22.879Z,483.00
2022-11-14T01:15:52.955Z,484.00
2022-11-14T01:16:23.045Z,484.00
2022-11-14T01:16:53.125Z,484.00
2022-11-14T01:17:23.211Z,484.00
2022-11-14T01:17:53.297Z,485.00
2022-11-14T01:18:23.377Z,486.00
2022-11-14T01:18:53.463Z,485.00
2022-11-14T01:19:23.558Z,489.00
2022-11-14T01:19:53.634Z,487.00
2022-11-14T01:20:23.644Z,490.00
2022-11-14T01:20:53.654Z,487.00
2022-11-14T01:21:23.658Z,487.00
2022-11-14T01:21:53.701Z,489.00
2022-11-14T01:22:23.676Z,489.00
2022-11-14T01:22:53.680Z,488.00
2022-11-14T01:23:23.684Z,488.00
2022-11-14T01:23:53.696Z,487.00
2022-11-14T01:24:23.696Z,486.00
2022-11-14T01:24:53.704Z,485.00
2022-11-14T01:25:23.696Z,485.00
2022-11-14T01:25:53.702Z,484.00
2022-11-14T01:26:23.710Z,485.00
2022-11-14T01:26:53.729Z,484.00
2022-11-14T01:27:23.731Z,483.00
2022-11-14T01:27:53.736Z,483.00
2022-11-14T01:28:23.743Z,481.00
2022-11-14T01:28:53.745Z,480.00
2022-11-14T01:29:23.762Z,482.00
2022-11-14T01:29:53.764Z,479.00
2022-11-14T01:30:23.893Z,483.00
2022-11-14T01:30:53.865Z,481.00
2022-11-14T01:31:23.867Z,484.00
2022-11-14T01:31:53.878Z,481.00
2022-11-14T01:32:23.880Z,483.00
2022-11-14T01:32:53.875Z,484.00
2022-11-14T01:33:23.883Z,481.00
2022-11-14T01:33:53.887Z,483.00
2022-11-14T01:34:23.904Z,486.00
2022-11-14T01:34:53.897Z,486.00
2022-11-14T01:35:24.007Z,485.00
2022-11-14T01:35:54.010Z,487.00
2022-11-14T01:36:24.028Z,486.00
2022-11-14T01:36:54.018Z,483.00
2022-11-14T01:37:24.033Z,481.00
2022-11-14T01:37:54.039Z,482.00
2022-11-14T01:38:24.047Z,484.00
2022-11-14T01:38:54.055Z,485.00
2022-11-14T01:39:24.055Z,485.00
2022-11-14T01:39:54.061Z,487.00
2022-11-14T01:40:24.062Z,490.00
2022-11-14T01:40:54.071Z,491.00
2022-11-14T01:41:24.079Z,491.00
2022-11-14T01:41:54.094Z,490.00
2022-11-14T01:42:27.368Z,488.00
2022-11-14T01:42:54.122Z,489.00
2022-11-14T01:43:24.125Z,489.00
2022-11-14T01:43:54.129Z,489.00
2022-11-14T01:44:24.135Z,488.00
2022-11-14T01:44:54.146Z,487.00
2022-11-14T01:45:24.147Z,487.00
2022-11-14T01:45:54.276Z,487.00
2022-11-14T01:46:24.243Z,488.00
2022-11-14T01:46:54.249Z,488.00
2022-11-14T01:47:24.249Z,489.00
2022-11-14T01:47:54.256Z,489.00
2022-11-14T01:48:24.259Z,490.00
2022-11-14T01:48:54.256Z,491.00
2022-11-14T01:49:24.273Z,490.00
2022-11-14T01:49:54.273Z,489.00
2022-11-14T01:50:24.275Z,489.00
2022-11-14T01:50:54.305Z,489.00
2022-11-14T01:51:24.323Z,489.00
2022-11-14T01:51:54.326Z,486.00
2022-11-14T01:52:24.342Z,486.00
2022-11-14T01:52:54.345Z,485.00
2022-11-14T01:53:24.354Z,485.00
2022-11-14T01:53:54.350Z,485.00
2022-11-14T01:54:24.359Z,485.00
2022-11-14T01:54:54.364Z,485.00
2022-11-14T01:55:24.378Z,485.00
2022-11-14T01:55:54.397Z,483.00
2022-11-14T01:56:24.394Z,481.00
2022-11-14T01:56:54.404Z,481.00
2022-11-14T01:57:24.418Z,487.00
2022-11-14T01:57:54.422Z,486.00
2022-11-14T01:58:24.434Z,484.00
2022-11-14T01:58:54.438Z,482.00
2022-11-14T01:59:24.443Z,482.00
2022-11-14T01:59:54.454Z,480.00
2022-11-14T02:00:24.460Z,482.00
2022-11-14T02:00:54.508Z,481.00
2022-11-14T02:01:24.679Z,482.00
2022-11-14T02:01:54.666Z,482.00
2022-11-14T02:02:24.690Z,482.00
2022-11-14T02:02:54.704Z,482.00
2022-11-14T02:03:24.716Z,482.00
2022-11-14T02:03:54.714Z,483.00
2022-11-14T02:04:24.715Z,485.00
2022-11-14T02:04:54.723Z,483.00
2022-11-14T02:05:24.727Z,484.00
2022-11-14T02:05:54.732Z,486.00
2022-11-14T02:06:24.751Z,487.00
2022-11-14T02:06:54.816Z,486.00
2022-11-14T02:07:24.956Z,484.00
2022-11-14T02:07:54.858Z,488.00
2022-11-14T02:08:24.865Z,486.00
2022-11-14T02:08:54.866Z,486.00
2022-11-14T02:09:24.864Z,487.00
2022-11-14T02:09:54.859Z,488.00
2022-11-14T02:10:24.960Z,490.00
2022-11-14T02:10:55.039Z,491.00
2022-11-14T02:11:25.117Z,487.00
2022-11-14T02:11:55.204Z,485.00
2022-11-14T02:12:25.291Z,484.00
2022-11-14T02:12:55.370Z,484.00
2022-11-14T02:13:25.448Z,485.00
2022-11-14T02:13:55.526Z,484.00
2022-11-14T02:14:25.615Z,484.00
2022-11-14T02:14:55.699Z,486.00
2022-11-14T02:15:25.802Z,486.00
2022-11-14T02:15:55.880Z,484.00
2022-11-14T02:16:25.957Z,480.00
2022-11-14T02:17:22.722Z,479.00
2022-11-14T02:17:30.842Z,481.00
2022-11-14T02:17:56.198Z,481.00
2022-11-14T02:18:26.479Z,482.00
2022-11-14T02:18:56.283Z,480.00
2022-11-14T02:19:26.372Z,478.00
2022-11-14T02:19:59.588Z,481.00
2022-11-14T02:20:26.479Z,482.00
2022-11-14T02:20:56.479Z,480.00
2022-11-14T02:21:26.497Z,480.00
2022-11-14T02:21:56.498Z,482.00
2022-11-14T02:22:26.507Z,484.00
2022-11-14T02:22:56.502Z,485.00
2022-11-14T02:23:26.498Z,484.00
2022-11-14T02:23:56.500Z,484.00
2022-11-14T02:24:26.515Z,485.00
2022-11-14T02:24:56.537Z,484.00
2022-11-14T02:25:26.536Z,485.00
2022-11-14T02:25:56.539Z,488.00
2022-11-14T02:26:26.551Z,484.00
2022-11-14T02:26:56.555Z,484.00
2022-11-14T02:27:26.582Z,484.00
2022-11-14T02:27:56.574Z,484.00
2022-11-14T02:28:26.913Z,484.00
2022-11-14T02:28:56.667Z,484.00
2022-11-14T02:29:26.668Z,486.00
2022-11-14T02:29:56.692Z,488.00
2022-11-14T02:30:26.699Z,487.00
2022-11-14T02:30:56.697Z,485.00
2022-11-14T02:31:26.701Z,487.00
2022-11-14T02:31:56.713Z,489.00
2022-11-14T02:32:26.944Z,489.00
2022-11-14T02:33:10.474Z,490.00
2022-11-14T02:33:26.885Z,489.00
2022-11-14T02:33:56.914Z,488.00
2022-11-14T02:34:26.930Z,488.00
2022-11-14T02:34:56.959Z,489.00
2022-11-14T02:35:26.961Z,486.00
2022-11-14T02:35:56.968Z,488.00
2022-11-14T02:36:26.984Z,489.00
2022-11-14T02:36:56.984Z,485.00
2022-11-14T02:37:26.994Z,486.00
2022-11-14T02:37:56.990Z,485.00
2022-11-14T02:38:27.359Z,484.00
2022-11-14T02:38:57.030Z,484.00
2022-11-14T02:39:27.034Z,487.00
2022-11-14T02:39:57.043Z,485.00
2022-11-14T02:40:27.048Z,484.00
2022-11-14T02:40:57.063Z,485.00
2022-11-14T02:41:27.062Z,484.00
2022-11-14T02:41:57.079Z,485.00
2022-11-14T02:42:27.076Z,487.00
2022-11-14T02:42:57.076Z,484.00
2022-11-14T02:43:27.084Z,484.00
2022-11-14T02:43:57.095Z,482.00
2022-11-14T02:44:27.097Z,480.00
2022-11-14T02:44:57.123Z,482.00
2022-11-14T02:45:27.129Z,481.00
2022-11-14T02:46:00.298Z,483.00
2022-11-14T02:46:27.274Z,483.00
2022-11-14T02:46:57.259Z,485.00
2022-11-14T02:47:27.266Z,485.00
2022-11-14T02:47:57.389Z,487.00
2022-11-14T02:48:27.501Z,486.00
2022-11-14T02:48:57.444Z,486.00
2022-11-14T02:49:27.443Z,487.00
2022-11-14T02:49:57.455Z,485.00
2022-11-14T02:50:27.467Z,484.00
2022-11-14T02:50:57.471Z,484.00
2022-11-14T02:51:27.488Z,485.00
2022-11-14T02:51:57.487Z,484.00
2022-11-14T02:52:27.493Z,483.00
2022-11-14T02:52:57.502Z,485.00
2022-11-14T02:53:27.520Z,486.00
2022-11-14T02:53:57.530Z,484.00
2022-11-14T02:54:27.532Z,482.00
2022-11-14T02:54:57.576Z,482.00
2022-11-14T02:55:27.578Z,483.00
2022-11-14T02:55:57.582Z,482.00
2022-11-14T02:56:27.582Z,484.00
2022-11-14T02:56:57.577Z,480.00
2022-11-14T02:57:27.587Z,482.00
2022-11-14T02:57:57.595Z,484.00
2022-11-14T02:58:27.960Z,481.00
2022-11-14T02:58:57.647Z,480.00
2022-11-14T02:59:27.652Z,481.00
2022-11-14T02:59:57.677Z,484.00
2022-11-14T03:00:27.783Z,483.00
2022-11-14T03:01:19.749Z,484.00
2022-11-14T03:01:27.948Z,484.00
2022-11-14T03:01:57.941Z,486.00
2022-11-14T03:02:27.949Z,488.00
2022-11-14T03:02:57.945Z,489.00
2022-11-14T03:03:28.065Z,488.00
2022-11-14T03:03:58.023Z,486.00
2022-11-14T03:04:28.039Z,485.00
2022-11-14T03:04:58.088Z,485.00
2022-11-14T03:05:28.095Z,483.00
2022-11-14T03:05:58.098Z,480.00
2022-11-14T03:06:28.212Z,482.00
2022-11-14T03:06:58.307Z,483.00
2022-11-14T03:07:28.393Z,483.00
2022-11-14T03:07:58.414Z,481.00
2022-11-14T03:08:28.934Z,481.00
2022-11-14T03:08:58.439Z,482.00
2022-11-14T03:09:28.455Z,482.00
2022-11-14T03:09:58.464Z,482.00
2022-11-14T03:10:28.547Z,482.00
2022-11-14T03:10:58.627Z,480.00
2022-11-14T03:11:28.717Z,481.00
2022-11-14T03:11:58.804Z,484.00
2022-11-14T03:12:28.888Z,484.00
2022-11-14T03:12:58.968Z,483.00
2022-11-14T03:13:29.051Z,482.00
2022-11-14T03:13:59.136Z,482.00
2022-11-14T03:14:29.228Z,480.00
2022-11-14T03:14:59.336Z,482.00
2022-11-14T03:15:29.313Z,481.00
2022-11-14T03:15:59.399Z,483.00
2022-11-14T03:16:29.489Z,484.00
2022-11-14T03:16:59.573Z,483.00
2022-11-14T03:17:29.657Z,482.00
2022-11-14T03:17:59.740Z,482.00
2022-11-14T03:18:30.220Z,483.00
2022-11-14T03:18:59.943Z,483.00
2022-11-14T03:19:30.033Z,483.00
2022-11-14T03:20:00.140Z,484.00
2022-11-14T03:20:30.141Z,485.00
2022-11-14T03:21:00.145Z,486.00
2022-11-14T03:21:30.148Z,484.00
2022-11-14T03:22:00.164Z,489.00
2022-11-14T03:22:30.166Z,489.00
2022-11-14T03:23:00.179Z,488.00
2022-11-14T03:23:30.188Z,486.00
2022-11-14T03:24:00.178Z,487.00
2022-11-14T03:24:30.177Z,489.00
2022-11-14T03:25:00.194Z,489.00
2022-11-14T03:25:30.209Z,488.00
2022-11-14T03:26:00.205Z,489.00
2022-11-14T03:26:30.203Z,489.00
2022-11-14T03:27:00.217Z,491.00
2022-11-14T03:27:30.228Z,490.00
2022-11-14T03:28:00.239Z,489.00
2022-11-14T03:28:30.713Z,488.00
2022-11-14T03:29:00.274Z,487.00
2022-11-14T03:29:30.318Z,487.00
2022-11-14T03:30:00.334Z,487.00
2022-11-14T03:30:30.337Z,488.00
2022-11-14T03:31:00.351Z,488.00
2022-11-14T03:31:30.347Z,491.00
2022-11-14T03:32:00.348Z,491.00
2022-11-14T03:32:30.356Z,492.00
2022-11-14T03:33:00.359Z,491.00
2022-11-14T03:33:30.365Z,490.00
2022-11-14T03:34:00.486Z,489.00
2022-11-14T03:34:30.450Z,487.00
2022-11-14T03:35:00.469Z,487.00
2022-11-14T03:35:30.474Z,488.00
2022-11-14T03:36:00.477Z,488.00
2022-11-14T03:36:30.493Z,489.00
2022-11-14T03:37:00.499Z,490.00
2022-11-14T03:37:30.498Z,490.00
2022-11-14T03:38:00.505Z,488.00
2022-11-14T03:38:30.820Z,489.00
2022-11-14T03:39:00.531Z,486.00
2022-11-14T03:39:30.537Z,483.00
2022-11-14T03:40:00.553Z,481.00
2022-11-14T03:40:30.548Z,483.00
2022-11-14T03:41:00.551Z,484.00
2022-11-14T03:41:30.559Z,483.00
2022-11-14T03:42:00.561Z,485.00
2022-11-14T03:42:30.571Z,487.00
2022-11-14T03:43:00.595Z,485.00
2022-11-14T03:43:30.593Z,486.00
2022-11-14T03:44:00.614Z,485.00
2022-11-14T03:44:30.616Z,481.00
2022-11-14T03:45:00.635Z,482.00
2022-11-14T03:45:30.643Z,481.00
2022-11-14T03:46:00.645Z,483.00
2022-11-14T03:46:30.651Z,482.00
2022-11-14T03:47:00.659Z,481.00
2022-11-14T03:47:30.666Z,480.00
2022-11-14T03:48:00.776Z,480.00
2022-11-14T03:48:31.137Z,479.00
2022-11-14T03:49:00.789Z,479.00
2022-11-14T03:49:30.913Z,481.00
2022-11-14T03:50:00.881Z,481.00
2022-11-14T03:50:30.880Z,481.00
2022-11-14T03:51:00.890Z,478.00
2022-11-14T03:51:30.909Z,481.00
2022-11-14T03:52:00.918Z,481.00
2022-11-14T03:52:30.919Z,479.00
2022-11-14T03:53:00.931Z,479.00
2022-11-14T03:53:30.934Z,480.00
2022-11-14T03:54:00.949Z,479.00
2022-11-14T03:54:30.959Z,480.00
2022-11-14T03:55:00.969Z,479.00
2022-11-14T03:55:30.970Z,478.00
2022-11-14T03:56:00.990Z,476.00
2022-11-14T03:56:30.995Z,476.00
2022-11-14T03:57:01.013Z,480.00
2022-11-14T03:57:31.018Z,480.00
2022-11-14T03:58:01.018Z,481.00
2022-11-14T03:58:31.456Z,481.00
2022-11-14T03:59:01.056Z,480.00
2022-11-14T03:59:31.055Z,482.00
2022-11-14T04:00:01.071Z,482.00
2022-11-14T04:00:31.110Z,478.00
2022-11-14T04:01:01.167Z,474.00
2022-11-14T04:01:31.200Z,475.00
2022-11-14T04:02:01.200Z,479.00
2022-11-14T04:02:31.207Z,476.00
2022-11-14T04:03:01.212Z,478.00
2022-11-14T04:03:31.226Z,479.00
2022-11-14T04:04:01.439Z,477.00
2022-11-14T04:04:31.324Z,478.00
2022-11-14T04:05:01.557Z,476.00
2022-11-14T04:05:31.532Z,478.00
2022-11-14T04:06:01.524Z,475.00
2022-11-14T04:06:31.539Z,473.00
2022-11-14T04:07:01.607Z,480.00
2022-11-14T04:07:31.705Z,479.00
2022-11-14T04:08:01.632Z,481.00
2022-11-14T04:08:32.139Z,480.00
2022-11-14T04:09:01.691Z,480.00
2022-11-14T04:09:31.702Z,480.00
2022-11-14T04:10:01.801Z,479.00
2022-11-14T04:10:31.884Z,477.00
2022-11-14T04:11:01.976Z,476.00
2022-11-14T04:11:32.049Z,478.00
2022-11-14T04:12:02.129Z,477.00
2022-11-14T04:12:32.223Z,478.00
2022-11-14T04:13:02.318Z,476.00
2022-11-14T04:13:32.393Z,474.00
2022-11-14T04:14:02.483Z,476.00
2022-11-14T04:14:32.563Z,480.00
2022-11-14T04:15:02.656Z,478.00
2022-11-14T04:15:32.737Z,476.00
2022-11-14T04:16:02.825Z,479.00
2022-11-14T04:16:32.903Z,478.00
2022-11-14T04:17:02.990Z,476.00
2022-11-14T04:17:38.534Z,476.00
2022-11-14T04:18:03.150Z,474.00
2022-11-14T04:18:33.382Z,478.00
2022-11-14T04:19:03.297Z,477.00
2022-11-14T04:19:33.395Z,474.00
2022-11-14T04:20:03.381Z,478.00
2022-11-14T04:20:33.493Z,480.00
2022-11-14T04:21:03.458Z,480.00
2022-11-14T04:21:33.466Z,481.00
2022-11-14T04:22:03.480Z,478.00
2022-11-14T04:22:33.486Z,480.00
2022-11-14T04:23:03.484Z,476.00
2022-11-14T04:23:33.522Z,478.00
2022-11-14T04:24:07.138Z,479.00
2022-11-14T04:24:33.608Z,476.00
2022-11-14T04:25:03.612Z,480.00
2022-11-14T04:25:33.612Z,477.00
2022-11-14T04:26:03.629Z,476.00
2022-11-14T04:26:33.636Z,477.00
2022-11-14T04:27:03.646Z,474.00
2022-11-14T04:27:33.655Z,477.00
2022-11-14T04:28:03.668Z,478.00
2022-11-14T04:28:33.674Z,476.00
2022-11-14T04:29:03.693Z,477.00
2022-11-14T04:29:33.691Z,478.00
2022-11-14T04:30:03.687Z,480.00
2022-11-14T04:30:34.984Z,478.00
2022-11-14T04:31:03.739Z,479.00
2022-11-14T04:31:33.736Z,479.00
2022-11-14T04:32:03.736Z,475.00
2022-11-14T04:32:33.746Z,473.00
2022-11-14T04:33:03.786Z,477.00
2022-11-14T04:33:33.805Z,473.00
2022-11-14T04:34:03.815Z,473.00
2022-11-14T04:34:33.820Z,464.00
2022-11-14T04:35:03.835Z,475.00
2022-11-14T04:35:33.836Z,472.00
2022-11-14T04:36:03.966Z,474.00
2022-11-14T04:36:33.930Z,473.00
2022-11-14T04:37:03.930Z,475.00
2022-11-14T04:37:33.933Z,474.00
2022-11-14T04:38:03.941Z,479.00
2022-11-14T04:38:33.959Z,479.00
2022-11-14T04:39:03.967Z,479.00
2022-11-14T04:39:33.964Z,476.00
2022-11-14T04:40:03.967Z,479.00
2022-11-14T04:40:33.980Z,480.00
2022-11-14T04:41:03.990Z,476.00
2022-11-14T04:41:33.995Z,480.00
2022-11-14T04:42:03.995Z,480.00
2022-11-14T04:42:33.998Z,478.00
2022-11-14T04:43:04.012Z,481.00
2022-11-14T04:43:34.027Z,478.00
2022-11-14T04:44:04.027Z,475.00
2022-11-14T04:44:34.035Z,476.00
2022-11-14T04:45:04.116Z,474.00
2022-11-14T04:45:34.171Z,473.00
2022-11-14T04:46:04.172Z,473.00
2022-11-14T04:46:34.175Z,477.00
2022-11-14T04:47:04.189Z,476.00
2022-11-14T04:47:34.195Z,478.00
2022-11-14T04:48:04.208Z,477.00
2022-11-14T04:48:34.213Z,478.00
2022-11-14T04:49:04.256Z,479.00
2022-11-14T04:49:34.259Z,477.00
2022-11-14T04:50:04.259Z,471.00
2022-11-14T04:50:34.274Z,472.00
2022-11-14T04:51:04.287Z,475.00
2022-11-14T04:51:34.399Z,474.00
2022-11-14T04:52:04.366Z,473.00
2022-11-14T04:52:34.366Z,470.00
2022-11-14T04:53:04.385Z,472.00
2022-11-14T04:53:34.388Z,471.00
2022-11-14T04:54:04.429Z,469.00
2022-11-14T04:54:34.431Z,474.00
2022-11-14T04:55:04.437Z,472.00
2022-11-14T04:55:34.447Z,473.00
2022-11-14T04:56:04.457Z,475.00
2022-11-14T04:56:34.459Z,475.00
2022-11-14T04:57:04.465Z,476.00
2022-11-14T04:57:34.480Z,477.00
2022-11-14T04:58:04.488Z,479.00
2022-11-14T04:58:34.498Z,473.00
2022-11-14T04:59:04.519Z,475.00
2022-11-14T04:59:34.520Z,473.00
2022-11-14T05:00:04.532Z,472.00
2022-11-14T05:00:34.541Z,472.00
2022-11-14T05:01:04.589Z,474.00
2022-11-14T05:01:34.650Z,475.00
2022-11-14T05:02:04.636Z,477.00
2022-11-14T05:02:34.639Z,481.00
2022-11-14T05:03:04.643Z,476.00
2022-11-14T05:03:34.657Z,476.00
2022-11-14T05:04:04.665Z,478.00
2022-11-14T05:04:34.680Z,479.00
2022-11-14T05:05:04.686Z,480.00
2022-11-14T05:05:39.223Z,481.00
2022-11-14T05:06:04.693Z,480.00
2022-11-14T05:06:34.694Z,481.00
2022-11-14T05:07:04.870Z,481.00
2022-11-14T05:07:34.769Z,482.00
2022-11-14T05:08:04.806Z,480.00
2022-11-14T05:08:34.822Z,482.00
2022-11-14T05:09:04.831Z,482.00
2022-11-14T05:09:34.840Z,480.00
2022-11-14T05:10:04.944Z,480.00
2022-11-14T05:10:35.096Z,480.00
2022-11-14T05:11:05.089Z,477.00
2022-11-14T05:11:35.171Z,476.00
2022-11-14T05:12:05.257Z,478.00
2022-11-14T05:12:35.340Z,478.00
2022-11-14T05:13:05.422Z,477.00
2022-11-14T05:13:35.503Z,478.00
2022-11-14T05:14:05.593Z,480.00
2022-11-14T05:14:35.685Z,477.00
2022-11-14T05:15:05.802Z,475.00
2022-11-14T05:15:35.772Z,476.00
2022-11-14T05:16:05.851Z,475.00
2022-11-14T05:16:35.941Z,476.00
2022-11-14T05:17:06.035Z,476.00
2022-11-14T05:17:36.117Z,477.00
2022-11-14T05:18:06.206Z,479.00
2022-11-14T05:18:36.287Z,480.00
2022-11-14T05:19:06.387Z,482.00
2022-11-14T05:19:36.468Z,482.00
2022-11-14T05:20:06.566Z,484.00
2022-11-14T05:20:36.578Z,479.00
2022-11-14T05:21:06.579Z,480.00
2022-11-14T05:21:36.589Z,480.00
2022-11-14T05:22:06.592Z,478.00
2022-11-14T05:22:36.620Z,478.00
2022-11-14T05:23:06.620Z,482.00
2022-11-14T05:23:36.626Z,482.00
2022-11-14T05:24:06.645Z,484.00
2022-11-14T05:24:36.641Z,482.00
2022-11-14T05:25:06.655Z,480.00
2022-11-14T05:25:36.661Z,479.00
2022-11-14T05:26:06.681Z,479.00
2022-11-14T05:26:36.693Z,483.00
2022-11-14T05:27:06.696Z,487.00
2022-11-14T05:27:36.699Z,491.00
2022-11-14T05:28:06.707Z,490.00
2022-11-14T05:28:36.715Z,489.00
2022-11-14T05:29:06.815Z,487.00
2022-11-14T05:29:36.816Z,487.00
2022-11-14T05:30:06.825Z,488.00
2022-11-14T05:30:36.830Z,494.00
2022-11-14T05:31:06.835Z,498.00
2022-11-14T05:31:36.841Z,499.00
2022-11-14T05:32:06.839Z,497.00
2022-11-14T05:32:36.856Z,496.00
2022-11-14T05:33:06.861Z,498.00
2022-11-14T05:33:36.879Z,499.00
2022-11-14T05:34:06.888Z,499.00
2022-11-14T05:34:36.899Z,500.00
2022-11-14T05:35:06.905Z,501.00
2022-11-14T05:35:36.905Z,500.00
2022-11-14T05:36:06.908Z,502.00
2022-11-14T05:36:37.017Z,506.00
2022-11-14T05:37:07.025Z,509.00
2022-11-14T05:37:37.039Z,511.00
2022-11-14T05:38:07.073Z,510.00
2022-11-14T05:38:37.053Z,509.00
2022-11-14T05:39:07.061Z,513.00
2022-11-14T05:39:37.079Z,514.00
2022-11-14T05:40:07.086Z,517.00
2022-11-14T05:40:37.086Z,517.00
2022-11-14T05:41:07.089Z,520.00
2022-11-14T05:41:37.093Z,517.00
2022-11-14T05:42:07.101Z,522.00
2022-11-14T05:42:37.107Z,522.00
2022-11-14T05:43:07.125Z,519.00
2022-11-14T05:43:37.135Z,521.00
2022-11-14T05:44:07.134Z,520.00
2022-11-14T05:44:37.138Z,522.00
2022-11-14T05:45:07.153Z,522.00
2022-11-14T05:45:37.157Z,523.00
2022-11-14T05:46:07.153Z,525.00
2022-11-14T05:46:37.185Z,524.00
2022-11-14T05:47:07.177Z,523.00
2022-11-14T05:47:37.185Z,524.00
2022-11-14T05:48:07.191Z,527.00
2022-11-14T05:48:37.199Z,529.00
2022-11-14T05:49:07.202Z,528.00
2022-11-14T05:49:37.219Z,530.00
2022-11-14T05:50:07.268Z,530.00
2022-11-14T05:50:37.265Z,533.00
2022-11-14T05:51:07.272Z,534.00
2022-11-14T05:51:37.273Z,532.00
2022-11-14T05:52:07.289Z,531.00
2022-11-14T05:52:37.305Z,532.00
2022-11-14T05:53:07.306Z,533.00
2022-11-14T05:53:37.329Z,534.00
2022-11-14T05:54:07.307Z,539.00
2022-11-14T05:54:37.319Z,539.00
2022-11-14T05:55:07.318Z,539.00
2022-11-14T05:55:37.323Z,540.00
2022-11-14T05:56:07.326Z,539.00
2022-11-14T05:56:37.325Z,537.00
2022-11-14T05:57:07.328Z,537.00
2022-11-14T05:57:37.336Z,540.00
2022-11-14T05:58:07.333Z,541.00
2022-11-14T05:58:37.353Z,541.00
2022-11-14T05:59:07.365Z,541.00
2022-11-14T05:59:37.369Z,542.00
2022-11-14T06:00:07.384Z,544.00
2022-11-14T06:00:43.667Z,544.00
2022-11-14T06:01:07.478Z,544.00
2022-11-14T06:01:37.517Z,545.00
2022-11-14T06:02:07.576Z,546.00
2022-11-14T06:02:37.606Z,545.00
2022-11-14T06:03:07.606Z,554.00
2022-11-14T06:03:37.610Z,572.00
2022-11-14T06:04:07.621Z,579.00
2022-11-14T06:04:37.640Z,585.00
2022-11-14T06:05:07.647Z,592.00
2022-11-14T06:05:37.651Z,594.00
2022-11-14T06:06:07.647Z,597.00
2022-11-14T06:06:37.650Z,600.00
2022-11-14T06:07:07.719Z,603.00
2022-11-14T06:07:37.802Z,606.00
2022-11-14T06:08:07.795Z,610.00
2022-11-14T06:08:37.805Z,609.00
2022-11-14T06:09:07.836Z,611.00
2022-11-14T06:09:37.832Z,612.00
2022-11-14T06:10:07.921Z,615.00
2022-11-14T06:10:37.999Z,614.00
2022-11-14T06:11:08.076Z,613.00
2022-11-14T06:11:38.931Z,615.00
2022-11-14T06:12:08.195Z,615.00
2022-11-14T06:12:38.273Z,619.00
2022-11-14T06:13:08.353Z,626.00
2022-11-14T06:13:38.436Z,624.00
2022-11-14T06:14:10.861Z,627.00
2022-11-14T06:14:38.621Z,630.00